sensor_id;sensor_type;location;lat;lon;timestamp;pressure;altitude;pressure_sealevel;temperature
71897;BMP280;59767;51.344;12.362;2022-11-03T00:01:47;160880.22;;;8.73
71897;BMP280;59767;51.344;12.362;2022-11-03T00:04:53;160878.91;;;8.72
71897;BMP280;59767;51.344;12.362;2022-11-03T00:07:57;160864.56;;;8.67
71897;BMP280;59767;51.344;12.362;2022-11-03T00:11:03;160860.66;;;8.65
71897;BMP280;59767;51.344;12.362;2022-11-03T00:14:08;160872.44;;;8.70
71897;BMP280;59767;51.344;12.362;2022-11-03T00:17:12;160833.16;;;8.55
71897;BMP280;59767;51.344;12.362;2022-11-03T00:20:16;160834.50;;;8.55
71897;BMP280;59767;51.344;12.362;2022-11-03T00:23:20;160863.25;;;8.66
71897;BMP280;59767;51.344;12.362;2022-11-03T00:26:31;160854.06;;;8.63
71897;BMP280;59767;51.344;12.362;2022-11-03T00:29:35;160867.16;;;8.68
71897;BMP280;59767;51.344;12.362;2022-11-03T00:32:39;160858.00;;;8.64
71897;BMP280;59767;51.344;12.362;2022-11-03T00:35:43;160847.59;;;8.60
71897;BMP280;59767;51.344;12.362;2022-11-03T00:38:47;160835.81;;;8.56
71897;BMP280;59767;51.344;12.362;2022-11-03T00:41:51;160837.09;;;8.56
71897;BMP280;59767;51.344;12.362;2022-11-03T00:44:56;160839.75;;;8.57
71897;BMP280;59767;51.344;12.362;2022-11-03T00:48:00;160829.25;;;8.53
71897;BMP280;59767;51.344;12.362;2022-11-03T00:51:25;160813.59;;;8.47
71897;BMP280;59767;51.344;12.362;2022-11-03T00:54:29;160808.34;;;8.45
71897;BMP280;59767;51.344;12.362;2022-11-03T00:57:33;160817.50;;;8.49
71897;BMP280;59767;51.344;12.362;2022-11-03T01:00:37;160804.41;;;8.44
71897;BMP280;59767;51.344;12.362;2022-11-03T01:03:42;160794.00;;;8.40
71897;BMP280;59767;51.344;12.362;2022-11-03T01:07:05;160773.06;;;8.32
71897;BMP280;59767;51.344;12.362;2022-11-03T01:10:10;160776.97;;;8.33
71897;BMP280;59767;51.344;12.362;2022-11-03T01:13:14;160788.75;;;8.38
71897;BMP280;59767;51.344;12.362;2022-11-03T01:16:18;160784.84;;;8.36
71897;BMP280;59767;51.344;12.362;2022-11-03T01:19:23;160763.94;;;8.28
71897;BMP280;59767;51.344;12.362;2022-11-03T01:22:28;160803.13;;;8.43
71897;BMP280;59767;51.344;12.362;2022-11-03T01:25:34;160786.16;;;8.37
71897;BMP280;59767;51.344;12.362;2022-11-03T01:28:40;160756.09;;;8.25
71897;BMP280;59767;51.344;12.362;2022-11-03T01:31:44;160763.94;;;8.28
71897;BMP280;59767;51.344;12.362;2022-11-03T01:34:48;160774.38;;;8.32
71897;BMP280;59767;51.344;12.362;2022-11-03T01:37:53;160756.09;;;8.25
71897;BMP280;59767;51.344;12.362;2022-11-03T01:40:57;160754.75;;;8.25
71897;BMP280;59767;51.344;12.362;2022-11-03T01:47:21;160736.50;;;8.18
71897;BMP280;59767;51.344;12.362;2022-11-03T01:50:26;160732.59;;;8.16
71897;BMP280;59767;51.344;12.362;2022-11-03T01:53:30;160735.19;;;8.17
71897;BMP280;59767;51.344;12.362;2022-11-03T01:56:36;160718.16;;;8.11
71897;BMP280;59767;51.344;12.362;2022-11-03T01:59:43;160711.69;;;8.08
71897;BMP280;59767;51.344;12.362;2022-11-03T02:02:49;160716.88;;;8.10
71897;BMP280;59767;51.344;12.362;2022-11-03T02:05:54;160716.88;;;8.10
71897;BMP280;59767;51.344;12.362;2022-11-03T02:09:03;160716.88;;;8.10
71897;BMP280;59767;51.344;12.362;2022-11-03T02:12:07;160709.03;;;8.07
71897;BMP280;59767;51.344;12.362;2022-11-03T02:15:15;160714.28;;;8.09
71897;BMP280;59767;51.344;12.362;2022-11-03T02:18:23;160707.75;;;8.07
71897;BMP280;59767;51.344;12.362;2022-11-03T02:21:55;160702.50;;;8.05
71897;BMP280;59767;51.344;12.362;2022-11-03T02:25:11;160695.94;;;8.02
71897;BMP280;59767;51.344;12.362;2022-11-03T02:28:19;160703.84;;;8.05
71897;BMP280;59767;51.344;12.362;2022-11-03T02:31:34;160707.75;;;8.07
71897;BMP280;59767;51.344;12.362;2022-11-03T02:34:46;160685.53;;;7.98
71897;BMP280;59767;51.344;12.362;2022-11-03T02:37:55;160695.94;;;8.02
71897;BMP280;59767;51.344;12.362;2022-11-03T02:41:04;160716.88;;;8.10
71897;BMP280;59767;51.344;12.362;2022-11-03T02:44:13;160716.88;;;8.10
71897;BMP280;59767;51.344;12.362;2022-11-03T02:47:18;160699.91;;;8.04
71897;BMP280;59767;51.344;12.362;2022-11-03T02:50:28;160698.59;;;8.03
71897;BMP280;59767;51.344;12.362;2022-11-03T02:53:36;160695.94;;;8.02
71897;BMP280;59767;51.344;12.362;2022-11-03T02:56:48;160693.34;;;8.01
71897;BMP280;59767;51.344;12.362;2022-11-03T03:00:01;160703.84;;;8.05
71897;BMP280;59767;51.344;12.362;2022-11-03T03:03:10;160698.59;;;8.03
71897;BMP280;59767;51.344;12.362;2022-11-03T03:06:25;160695.94;;;8.02
71897;BMP280;59767;51.344;12.362;2022-11-03T03:09:38;160690.78;;;8.00
71897;BMP280;59767;51.344;12.362;2022-11-03T03:12:47;160685.53;;;7.98
71897;BMP280;59767;51.344;12.362;2022-11-03T03:16:03;160676.38;;;7.95
71897;BMP280;59767;51.344;12.362;2022-11-03T03:19:29;160688.13;;;7.99
71897;BMP280;59767;51.344;12.362;2022-11-03T03:22:52;160681.63;;;7.97
71897;BMP280;59767;51.344;12.362;2022-11-03T03:26:11;160681.63;;;7.97
71897;BMP280;59767;51.344;12.362;2022-11-03T03:29:21;160699.91;;;8.04
71897;BMP280;59767;51.344;12.362;2022-11-03T03:32:29;160689.47;;;8.00
71897;BMP280;59767;51.344;12.362;2022-11-03T03:35:39;160681.63;;;7.97
71897;BMP280;59767;51.344;12.362;2022-11-03T03:38:48;160695.94;;;8.02
71897;BMP280;59767;51.344;12.362;2022-11-03T03:41:52;160739.09;;;8.19
71897;BMP280;59767;51.344;12.362;2022-11-03T03:44:58;160727.34;;;8.14
71897;BMP280;59767;51.344;12.362;2022-11-03T03:48:04;160707.75;;;8.07
71897;BMP280;59767;51.344;12.362;2022-11-03T03:51:10;160714.28;;;8.09
71897;BMP280;59767;51.344;12.362;2022-11-03T03:54:15;160709.03;;;8.07
71897;BMP280;59767;51.344;12.362;2022-11-03T03:57:21;160710.38;;;8.08
71897;BMP280;59767;51.344;12.362;2022-11-03T04:00:26;160724.72;;;8.13
71897;BMP280;59767;51.344;12.362;2022-11-03T04:03:29;160719.47;;;8.11
71897;BMP280;59767;51.344;12.362;2022-11-03T04:06:34;160698.59;;;8.03
71897;BMP280;59767;51.344;12.362;2022-11-03T04:09:38;160710.38;;;8.08
71897;BMP280;59767;51.344;12.362;2022-11-03T04:12:43;160705.09;;;8.06
71897;BMP280;59767;51.344;12.362;2022-11-03T04:16:07;160689.47;;;8.00
71897;BMP280;59767;51.344;12.362;2022-11-03T04:19:30;160709.03;;;8.07
71897;BMP280;59767;51.344;12.362;2022-11-03T04:22:53;160694.66;;;8.02
71897;BMP280;59767;51.344;12.362;2022-11-03T04:25:58;160714.28;;;8.09
71897;BMP280;59767;51.344;12.362;2022-11-03T04:29:05;160729.94;;;8.15
71897;BMP280;59767;51.344;12.362;2022-11-03T04:32:13;160735.19;;;8.17
71897;BMP280;59767;51.344;12.362;2022-11-03T04:35:22;160694.66;;;8.02
71897;BMP280;59767;51.344;12.362;2022-11-03T04:38:28;160699.91;;;8.04
71897;BMP280;59767;51.344;12.362;2022-11-03T04:41:32;160690.78;;;8.00
71897;BMP280;59767;51.344;12.362;2022-11-03T04:44:36;160698.59;;;8.03
71897;BMP280;59767;51.344;12.362;2022-11-03T04:47:40;160681.63;;;7.97
71897;BMP280;59767;51.344;12.362;2022-11-03T04:50:46;160660.72;;;7.89
71897;BMP280;59767;51.344;12.362;2022-11-03T04:53:53;160648.94;;;7.84
71897;BMP280;59767;51.344;12.362;2022-11-03T04:56:57;160635.84;;;7.79
71897;BMP280;59767;51.344;12.362;2022-11-03T05:00:02;160622.81;;;7.74
71897;BMP280;59767;51.344;12.362;2022-11-03T05:03:12;160630.66;;;7.77
71897;BMP280;59767;51.344;12.362;2022-11-03T05:06:20;160621.47;;;7.74
71897;BMP280;59767;51.344;12.362;2022-11-03T05:09:29;160621.47;;;7.74
71897;BMP280;59767;51.344;12.362;2022-11-03T05:12:33;160614.97;;;7.71
71897;BMP280;59767;51.344;12.362;2022-11-03T05:15:41;160604.56;;;7.67
71897;BMP280;59767;51.344;12.362;2022-11-03T05:18:47;160594.06;;;7.63
71897;BMP280;59767;51.344;12.362;2022-11-03T05:21:54;160594.06;;;7.63
71897;BMP280;59767;51.344;12.362;2022-11-03T05:25:02;160591.47;;;7.62
71897;BMP280;59767;51.344;12.362;2022-11-03T05:28:27;160608.44;;;7.69
71897;BMP280;59767;51.344;12.362;2022-11-03T05:31:34;160588.81;;;7.61
71897;BMP280;59767;51.344;12.362;2022-11-03T05:34:45;160575.81;;;7.56
71897;BMP280;59767;51.344;12.362;2022-11-03T05:37:50;160579.69;;;7.58
71897;BMP280;59767;51.344;12.362;2022-11-03T05:40:58;160562.72;;;7.51
71897;BMP280;59767;51.344;12.362;2022-11-03T05:44:33;160564.00;;;7.52
71897;BMP280;59767;51.344;12.362;2022-11-03T05:47:39;160552.25;;;7.47
71897;BMP280;59767;51.344;12.362;2022-11-03T05:50:47;160562.72;;;7.51
71897;BMP280;59767;51.344;12.362;2022-11-03T05:53:54;160562.72;;;7.51
71897;BMP280;59767;51.344;12.362;2022-11-03T05:56:59;160562.72;;;7.51
71897;BMP280;59767;51.344;12.362;2022-11-03T06:00:06;160554.88;;;7.48
71897;BMP280;59767;51.344;12.362;2022-11-03T06:03:16;160545.78;;;7.45
71897;BMP280;59767;51.344;12.362;2022-11-03T06:09:35;160569.25;;;7.54
71897;BMP280;59767;51.344;12.362;2022-11-03T06:12:39;160570.59;;;7.54
71897;BMP280;59767;51.344;12.362;2022-11-03T06:15:46;160565.34;;;7.52
71897;BMP280;59767;51.344;12.362;2022-11-03T06:18:50;160607.16;;;7.68
71897;BMP280;59767;51.344;12.362;2022-11-03T06:21:57;160617.56;;;7.72
71897;BMP280;59767;51.344;12.362;2022-11-03T06:25:15;160586.22;;;7.60
71897;BMP280;59767;51.344;12.362;2022-11-03T06:28:25;160607.16;;;7.68
71897;BMP280;59767;51.344;12.362;2022-11-03T06:31:33;160609.72;;;7.69
71897;BMP280;59767;51.344;12.362;2022-11-03T06:34:46;160607.16;;;7.68
71897;BMP280;59767;51.344;12.362;2022-11-03T06:37:52;160621.47;;;7.74
71897;BMP280;59767;51.344;12.362;2022-11-03T06:40:57;160634.56;;;7.79
71897;BMP280;59767;51.344;12.362;2022-11-03T06:44:17;160688.13;;;7.99
71897;BMP280;59767;51.344;12.362;2022-11-03T06:47:25;160703.84;;;8.05
71897;BMP280;59767;51.344;12.362;2022-11-03T06:50:32;160710.38;;;8.08
71897;BMP280;59767;51.344;12.362;2022-11-03T06:53:37;160707.75;;;8.07
71897;BMP280;59767;51.344;12.362;2022-11-03T06:56:41;160714.28;;;8.09
71897;BMP280;59767;51.344;12.362;2022-11-03T06:59:45;160726.00;;;8.14
71897;BMP280;59767;51.344;12.362;2022-11-03T07:02:56;160746.91;;;8.22
71897;BMP280;59767;51.344;12.362;2022-11-03T07:09:27;160773.06;;;8.32
71897;BMP280;59767;51.344;12.362;2022-11-03T07:12:32;160776.97;;;8.33
71897;BMP280;59767;51.344;12.362;2022-11-03T07:15:36;160779.56;;;8.34
71897;BMP280;59767;51.344;12.362;2022-11-03T07:18:42;160783.50;;;8.36
71897;BMP280;59767;51.344;12.362;2022-11-03T07:21:53;160776.97;;;8.33
71897;BMP280;59767;51.344;12.362;2022-11-03T07:25:02;160783.50;;;8.36
71897;BMP280;59767;51.344;12.362;2022-11-03T07:28:08;160792.69;;;8.39
71897;BMP280;59767;51.344;12.362;2022-11-03T07:31:18;160808.34;;;8.45
71897;BMP280;59767;51.344;12.362;2022-11-03T07:34:25;160837.09;;;8.56
71897;BMP280;59767;51.344;12.362;2022-11-03T07:37:30;160837.09;;;8.56
71897;BMP280;59767;51.344;12.362;2022-11-03T07:40:35;160855.38;;;8.63
71897;BMP280;59767;51.344;12.362;2022-11-03T07:43:40;160861.91;;;8.66
71897;BMP280;59767;51.344;12.362;2022-11-03T07:46:44;160893.34;;;8.78
71897;BMP280;59767;51.344;12.362;2022-11-03T07:49:48;160902.47;;;8.81
71897;BMP280;59767;51.344;12.362;2022-11-03T07:52:52;160918.16;;;8.88
71897;BMP280;59767;51.344;12.362;2022-11-03T07:55:56;160967.84;;;9.07
71897;BMP280;59767;51.344;12.362;2022-11-03T08:02:32;161122.13;;;9.66
71897;BMP280;59767;51.344;12.362;2022-11-03T08:05:37;161186.16;;;9.90
71897;BMP280;59767;51.344;12.362;2022-11-03T08:08:41;161238.53;;;10.10
71897;BMP280;59767;51.344;12.362;2022-11-03T08:11:45;161302.59;;;10.35
71897;BMP280;59767;51.344;12.362;2022-11-03T08:14:49;161337.91;;;10.48
71897;BMP280;59767;51.344;12.362;2022-11-03T08:17:54;161328.78;;;10.45
71897;BMP280;59767;51.344;12.362;2022-11-03T08:20:59;161351.00;;;10.53
71897;BMP280;59767;51.344;12.362;2022-11-03T08:24:04;161409.88;;;10.76
71897;BMP280;59767;51.344;12.362;2022-11-03T08:27:08;161549.94;;;11.29
71897;BMP280;59767;51.344;12.362;2022-11-03T08:30:12;161497.56;;;11.09
71897;BMP280;59767;51.344;12.362;2022-11-03T08:33:17;161509.31;;;11.14
71897;BMP280;59767;51.344;12.362;2022-11-03T08:36:21;161483.16;;;11.04
71897;BMP280;59767;51.344;12.362;2022-11-03T08:39:26;161505.38;;;11.12
71897;BMP280;59767;51.344;12.362;2022-11-03T08:42:29;161466.16;;;10.97
71897;BMP280;59767;51.344;12.362;2022-11-03T08:45:33;161447.81;;;10.90
71897;BMP280;59767;51.344;12.362;2022-11-03T08:48:37;161470.09;;;10.99
71897;BMP280;59767;51.344;12.362;2022-11-03T08:51:41;161560.34;;;11.33
71897;BMP280;59767;51.344;12.362;2022-11-03T08:54:47;161638.88;;;11.63
71897;BMP280;59767;51.344;12.362;2022-11-03T08:57:51;161646.75;;;11.66
71897;BMP280;59767;51.344;12.362;2022-11-03T09:00:55;161658.50;;;11.71
71897;BMP280;59767;51.344;12.362;2022-11-03T09:03:59;161691.19;;;11.83
71897;BMP280;59767;51.344;12.362;2022-11-03T09:07:03;161696.47;;;11.85
71897;BMP280;59767;51.344;12.362;2022-11-03T09:10:08;161696.47;;;11.85
71897;BMP280;59767;51.344;12.362;2022-11-03T09:13:20;161708.22;;;11.90
71897;BMP280;59767;51.344;12.362;2022-11-03T09:16:24;161739.69;;;12.02
71897;BMP280;59767;51.344;12.362;2022-11-03T09:19:28;161730.50;;;11.98
71897;BMP280;59767;51.344;12.362;2022-11-03T09:22:32;161710.88;;;11.91
71897;BMP280;59767;51.344;12.362;2022-11-03T09:25:36;161718.75;;;11.94
71897;BMP280;59767;51.344;12.362;2022-11-03T09:28:41;161703.06;;;11.88
71897;BMP280;59767;51.344;12.362;2022-11-03T09:31:45;161705.66;;;11.89
71897;BMP280;59767;51.344;12.362;2022-11-03T09:34:49;161717.41;;;11.93
71897;BMP280;59767;51.344;12.362;2022-11-03T09:37:53;161701.72;;;11.87
71897;BMP280;59767;51.344;12.362;2022-11-03T09:40:58;161703.06;;;11.88
71897;BMP280;59767;51.344;12.362;2022-11-03T09:44:02;161699.13;;;11.86
71897;BMP280;59767;51.344;12.362;2022-11-03T09:47:11;161703.06;;;11.88
71897;BMP280;59767;51.344;12.362;2022-11-03T09:50:19;161697.78;;;11.86
71897;BMP280;59767;51.344;12.362;2022-11-03T09:53:23;161714.81;;;11.92
71897;BMP280;59767;51.344;12.362;2022-11-03T09:56:27;161752.78;;;12.07
71897;BMP280;59767;51.344;12.362;2022-11-03T09:59:31;161768.47;;;12.13
71897;BMP280;59767;51.344;12.362;2022-11-03T10:02:35;161801.19;;;12.25
71897;BMP280;59767;51.344;12.362;2022-11-03T10:05:43;161831.34;;;12.37
71897;BMP280;59767;51.344;12.362;2022-11-03T10:08:48;161853.53;;;12.45
71897;BMP280;59767;51.344;12.362;2022-11-03T10:11:53;161861.41;;;12.48
71897;BMP280;59767;51.344;12.362;2022-11-03T10:14:58;161877.16;;;12.54
71897;BMP280;59767;51.344;12.362;2022-11-03T10:18:02;161920.38;;;12.71
71897;BMP280;59767;51.344;12.362;2022-11-03T10:21:14;161934.78;;;12.76
71897;BMP280;59767;51.344;12.362;2022-11-03T10:24:19;161940.00;;;12.78
71897;BMP280;59767;51.344;12.362;2022-11-03T10:27:24;161933.47;;;12.76
71897;BMP280;59767;51.344;12.362;2022-11-03T10:30:28;161979.28;;;12.93
71897;BMP280;59767;51.344;12.362;2022-11-03T10:33:41;161974.06;;;12.91
71897;BMP280;59767;51.344;12.362;2022-11-03T10:40:33;162098.47;;;13.39
71897;BMP280;59767;51.344;12.362;2022-11-03T10:44:17;162081.44;;;13.32
71897;BMP280;59767;51.344;12.362;2022-11-03T10:47:31;162089.38;;;13.35
71897;BMP280;59767;51.344;12.362;2022-11-03T10:50:38;162069.66;;;13.28
71897;BMP280;59767;51.344;12.362;2022-11-03T10:53:43;162084.09;;;13.33
71897;BMP280;59767;51.344;12.362;2022-11-03T10:56:47;162124.66;;;13.49
71897;BMP280;59767;51.344;12.362;2022-11-03T10:59:54;162141.72;;;13.55
71897;BMP280;59767;51.344;12.362;2022-11-03T11:02:59;162171.91;;;13.67
71897;BMP280;59767;51.344;12.362;2022-11-03T11:06:03;162188.94;;;13.73
71897;BMP280;59767;51.344;12.362;2022-11-03T11:09:09;162237.34;;;13.92
71897;BMP280;59767;51.344;12.362;2022-11-03T11:12:20;162242.63;;;13.94
71897;BMP280;59767;51.344;12.362;2022-11-03T11:15:43;162264.88;;;14.02
71897;BMP280;59767;51.344;12.362;2022-11-03T11:24:55;162238.69;;;13.92
71897;BMP280;59767;51.344;12.362;2022-11-03T11:28:10;162266.22;;;14.03
71897;BMP280;59767;51.344;12.362;2022-11-03T11:45:10;162315.97;;;14.22
71897;BMP280;59767;51.344;12.362;2022-11-03T11:48:18;162343.50;;;14.32
71897;BMP280;59767;51.344;12.362;2022-11-03T11:51:23;162373.66;;;14.44
71897;BMP280;59767;51.344;12.362;2022-11-03T11:54:30;162389.38;;;14.50
71897;BMP280;59767;51.344;12.362;2022-11-03T11:57:38;162394.59;;;14.52
71897;BMP280;59767;51.344;12.362;2022-11-03T12:00:56;162420.88;;;14.62
71897;BMP280;59767;51.344;12.362;2022-11-03T12:04:07;162412.97;;;14.59
71897;BMP280;59767;51.344;12.362;2022-11-03T12:07:30;162375.00;;;14.44
71897;BMP280;59767;51.344;12.362;2022-11-03T12:10:35;162402.47;;;14.55
71897;BMP280;59767;51.344;12.362;2022-11-03T12:13:48;162357.94;;;14.38
71897;BMP280;59767;51.344;12.362;2022-11-03T12:16:55;162355.31;;;14.37
71897;BMP280;59767;51.344;12.362;2022-11-03T12:19:59;162344.84;;;14.33
71897;BMP280;59767;51.344;12.362;2022-11-03T12:23:03;162326.47;;;14.26
71897;BMP280;59767;51.344;12.362;2022-11-03T12:26:17;162372.34;;;14.43
71897;BMP280;59767;51.344;12.362;2022-11-03T12:29:22;162373.66;;;14.44
71897;BMP280;59767;51.344;12.362;2022-11-03T12:32:26;162357.94;;;14.38
71897;BMP280;59767;51.344;12.362;2022-11-03T12:35:37;162357.94;;;14.38
71897;BMP280;59767;51.344;12.362;2022-11-03T12:38:41;162386.75;;;14.49
71897;BMP280;59767;51.344;12.362;2022-11-03T12:41:45;162394.59;;;14.52
71897;BMP280;59767;51.344;12.362;2022-11-03T12:44:49;162399.88;;;14.54
71897;BMP280;59767;51.344;12.362;2022-11-03T12:47:53;162418.19;;;14.61
71897;BMP280;59767;51.344;12.362;2022-11-03T12:50:57;162388.09;;;14.49
71897;BMP280;59767;51.344;12.362;2022-11-03T12:54:01;162388.09;;;14.49
71897;BMP280;59767;51.344;12.362;2022-11-03T12:57:05;162377.56;;;14.45
71897;BMP280;59767;51.344;12.362;2022-11-03T13:00:09;162355.31;;;14.37
71897;BMP280;59767;51.344;12.362;2022-11-03T13:03:13;162359.28;;;14.38
71897;BMP280;59767;51.344;12.362;2022-11-03T13:06:17;162333.00;;;14.28
71897;BMP280;59767;51.344;12.362;2022-11-03T13:09:21;162310.75;;;14.20
71897;BMP280;59767;51.344;12.362;2022-11-03T13:12:26;162313.41;;;14.21
71897;BMP280;59767;51.344;12.362;2022-11-03T13:15:36;162302.84;;;14.17
71897;BMP280;59767;51.344;12.362;2022-11-03T13:18:40;162321.25;;;14.24
71897;BMP280;59767;51.344;12.362;2022-11-03T13:21:44;162344.84;;;14.33
71897;BMP280;59767;51.344;12.362;2022-11-03T13:24:48;162397.22;;;14.53
71897;BMP280;59767;51.344;12.362;2022-11-03T13:27:52;162399.88;;;14.54
71897;BMP280;59767;51.344;12.362;2022-11-03T13:30:59;162443.09;;;14.70
71897;BMP280;59767;51.344;12.362;2022-11-03T13:34:04;162449.69;;;14.73
71897;BMP280;59767;51.344;12.362;2022-11-03T13:37:08;162428.69;;;14.65
71897;BMP280;59767;51.344;12.362;2022-11-03T13:40:13;162416.91;;;14.60
71897;BMP280;59767;51.344;12.362;2022-11-03T13:43:38;162433.97;;;14.67
71897;BMP280;59767;51.344;12.362;2022-11-03T13:46:42;162414.25;;;14.59
71897;BMP280;59767;51.344;12.362;2022-11-03T13:49:46;162402.47;;;14.55
71897;BMP280;59767;51.344;12.362;2022-11-03T13:53:10;162407.72;;;14.57
71897;BMP280;59767;51.344;12.362;2022-11-03T13:56:33;162405.16;;;14.56
71897;BMP280;59767;51.344;12.362;2022-11-03T13:59:57;162430.03;;;14.65
71897;BMP280;59767;51.344;12.362;2022-11-03T14:03:07;162407.72;;;14.57
71897;BMP280;59767;51.344;12.362;2022-11-03T14:06:31;162426.03;;;14.64
71897;BMP280;59767;51.344;12.362;2022-11-03T14:09:35;162420.88;;;14.62
71897;BMP280;59767;51.344;12.362;2022-11-03T14:12:44;162394.59;;;14.52
71897;BMP280;59767;51.344;12.362;2022-11-03T14:15:48;162399.88;;;14.54
71897;BMP280;59767;51.344;12.362;2022-11-03T14:18:53;162388.09;;;14.49
71897;BMP280;59767;51.344;12.362;2022-11-03T14:21:57;162376.22;;;14.45
71897;BMP280;59767;51.344;12.362;2022-11-03T14:25:01;162364.44;;;14.40
71897;BMP280;59767;51.344;12.362;2022-11-03T14:28:05;162401.16;;;14.54
71897;BMP280;59767;51.344;12.362;2022-11-03T14:31:10;162397.22;;;14.53
71897;BMP280;59767;51.344;12.362;2022-11-03T14:34:14;162412.97;;;14.59
71897;BMP280;59767;51.344;12.362;2022-11-03T14:37:18;162393.25;;;14.51
71897;BMP280;59767;51.344;12.362;2022-11-03T14:40:23;162368.38;;;14.42
71897;BMP280;59767;51.344;12.362;2022-11-03T14:43:46;162367.09;;;14.41
71897;BMP280;59767;51.344;12.362;2022-11-03T14:46:49;162350.06;;;14.35
71897;BMP280;59767;51.344;12.362;2022-11-03T14:49:53;162348.72;;;14.34
71897;BMP280;59767;51.344;12.362;2022-11-03T14:52:57;162322.50;;;14.24
71897;BMP280;59767;51.344;12.362;2022-11-03T14:56:03;162283.25;;;14.09
71897;BMP280;59767;51.344;12.362;2022-11-03T14:59:07;162279.31;;;14.08
71897;BMP280;59767;51.344;12.362;2022-11-03T15:02:10;162270.09;;;14.04
71897;BMP280;59767;51.344;12.362;2022-11-03T15:05:15;162260.94;;;14.01
71897;BMP280;59767;51.344;12.362;2022-11-03T15:08:38;162226.84;;;13.88
71897;BMP280;59767;51.344;12.362;2022-11-03T15:11:43;162222.91;;;13.86
71897;BMP280;59767;51.344;12.362;2022-11-03T15:14:47;162196.75;;;13.76
71897;BMP280;59767;51.344;12.362;2022-11-03T15:17:51;162186.28;;;13.72
71897;BMP280;59767;51.344;12.362;2022-11-03T15:20:54;162183.66;;;13.71
71897;BMP280;59767;51.344;12.362;2022-11-03T15:23:58;162178.41;;;13.69
71897;BMP280;59767;51.344;12.362;2022-11-03T15:27:22;162185.00;;;13.72
71897;BMP280;59767;51.344;12.362;2022-11-03T15:30:26;162173.13;;;13.67
71897;BMP280;59767;51.344;12.362;2022-11-03T15:33:30;162170.56;;;13.66
71897;BMP280;59767;51.344;12.362;2022-11-03T15:36:35;162171.91;;;13.67
71897;BMP280;59767;51.344;12.362;2022-11-03T15:39:39;162128.63;;;13.50
71897;BMP280;59767;51.344;12.362;2022-11-03T15:42:43;162133.88;;;13.52
71897;BMP280;59767;51.344;12.362;2022-11-03T15:45:47;162122.09;;;13.48
71897;BMP280;59767;51.344;12.362;2022-11-03T15:48:50;162095.88;;;13.38
71897;BMP280;59767;51.344;12.362;2022-11-03T15:51:57;162112.91;;;13.44
71897;BMP280;59767;51.344;12.362;2022-11-03T15:55:01;162099.81;;;13.39
71897;BMP280;59767;51.344;12.362;2022-11-03T15:58:05;162081.44;;;13.32
71897;BMP280;59767;51.344;12.362;2022-11-03T16:01:10;162073.63;;;13.29
71897;BMP280;59767;51.344;12.362;2022-11-03T16:04:14;162074.94;;;13.30
71897;BMP280;59767;51.344;12.362;2022-11-03T16:07:18;162084.09;;;13.33
71897;BMP280;59767;51.344;12.362;2022-11-03T16:10:22;162093.25;;;13.37
71897;BMP280;59767;51.344;12.362;2022-11-03T16:13:26;162098.47;;;13.39
71897;BMP280;59767;51.344;12.362;2022-11-03T16:16:30;162069.66;;;13.28
71897;BMP280;59767;51.344;12.362;2022-11-03T16:19:34;162068.38;;;13.27
71897;BMP280;59767;51.344;12.362;2022-11-03T16:22:38;162042.16;;;13.17
71897;BMP280;59767;51.344;12.362;2022-11-03T16:25:43;162055.28;;;13.22
71897;BMP280;59767;51.344;12.362;2022-11-03T16:28:46;162025.13;;;13.11
71897;BMP280;59767;51.344;12.362;2022-11-03T16:31:50;162067.06;;;13.27
71897;BMP280;59767;51.344;12.362;2022-11-03T16:34:54;162065.75;;;13.26
71897;BMP280;59767;51.344;12.362;2022-11-03T16:37:58;162053.97;;;13.22
71897;BMP280;59767;51.344;12.362;2022-11-03T16:41:02;162012.03;;;13.06
71897;BMP280;59767;51.344;12.362;2022-11-03T16:44:06;162000.25;;;13.01
71897;BMP280;59767;51.344;12.362;2022-11-03T16:47:10;162000.25;;;13.01
71897;BMP280;59767;51.344;12.362;2022-11-03T16:50:14;162017.28;;;13.08
71897;BMP280;59767;51.344;12.362;2022-11-03T16:53:21;161975.34;;;12.92
71897;BMP280;59767;51.344;12.362;2022-11-03T16:56:25;161974.06;;;12.91
71897;BMP280;59767;51.344;12.362;2022-11-03T16:59:29;162005.53;;;13.03
71897;BMP280;59767;51.344;12.362;2022-11-03T17:02:33;161998.94;;;13.01
71897;BMP280;59767;51.344;12.362;2022-11-03T17:05:38;161980.63;;;12.94
71897;BMP280;59767;51.344;12.362;2022-11-03T17:08:41;161950.50;;;12.82
71897;BMP280;59767;51.344;12.362;2022-11-03T17:12:01;161941.28;;;12.79
71897;BMP280;59767;51.344;12.362;2022-11-03T17:15:05;161941.28;;;12.79
71897;BMP280;59767;51.344;12.362;2022-11-03T17:18:09;161921.72;;;12.71
71897;BMP280;59767;51.344;12.362;2022-11-03T17:21:13;161922.97;;;12.72
71897;BMP280;59767;51.344;12.362;2022-11-03T17:24:17;161902.06;;;12.64
71897;BMP280;59767;51.344;12.362;2022-11-03T17:27:25;161877.16;;;12.54
71897;BMP280;59767;51.344;12.362;2022-11-03T17:30:32;161875.84;;;12.54
71897;BMP280;59767;51.344;12.362;2022-11-03T17:33:37;161882.38;;;12.56
71897;BMP280;59767;51.344;12.362;2022-11-03T17:36:42;161887.66;;;12.58
71897;BMP280;59767;51.344;12.362;2022-11-03T17:39:46;161870.56;;;12.52
71897;BMP280;59767;51.344;12.362;2022-11-03T17:42:50;161852.31;;;12.45
71897;BMP280;59767;51.344;12.362;2022-11-03T17:45:54;161860.13;;;12.48
71897;BMP280;59767;51.344;12.362;2022-11-03T17:48:58;161839.19;;;12.40
71897;BMP280;59767;51.344;12.362;2022-11-03T17:52:02;161828.69;;;12.36
71897;BMP280;59767;51.344;12.362;2022-11-03T17:55:15;161828.69;;;12.36
71897;BMP280;59767;51.344;12.362;2022-11-03T17:58:30;161807.75;;;12.28
71897;BMP280;59767;51.344;12.362;2022-11-03T18:01:35;161809.06;;;12.28
71897;BMP280;59767;51.344;12.362;2022-11-03T18:04:40;161763.22;;;12.11
71897;BMP280;59767;51.344;12.362;2022-11-03T18:07:44;161775.03;;;12.15
71897;BMP280;59767;51.344;12.362;2022-11-03T18:10:50;161751.47;;;12.06